Time;durP1;ratioP1;P1;durP2;ratioP2;P2;SDS_P1;SDS_P2;PMS_P1;PMS_P2;Temp;Humidity;BMP_temperature;BMP_pressure;BME280_temperature;BME280_humidity;BME280_pressure;Samples;Min_cycle;Max_cycle;Signal;HPM_P1;HPM_P2
2024/02/20 00:02:24;;;;;;;;;7.25;5.50;;;;;10.71;83.40;102555.94;5061429;28;45517;-67
2024/02/20 00:04:49;;;;;;;;;16.00;8.00;;;;;10.69;83.18;102557.69;5063787;28;45314;-67
2024/02/20 00:07:15;;;;;;;;;13.50;9.25;;;;;10.69;83.55;102555.94;5073154;28;45424;-67
2024/02/20 00:09:40;;;;;;;;;10.75;8.25;;;;;10.68;83.42;102562.06;5080118;27;61297;-66
2024/02/20 00:12:07;;;;;;;;;10.50;8.50;;;;;10.65;83.20;102564.69;5056371;28;55727;-67
2024/02/20 00:14:33;;;;;;;;;11.25;8.25;;;;;10.68;83.08;102567.31;5063628;28;45500;-67
2024/02/20 00:16:58;;;;;;;;;17.75;9.75;;;;;10.71;83.19;102579.53;5059445;28;45287;-67
2024/02/20 00:19:23;;;;;;;;;14.75;8.25;;;;;10.72;83.45;102570.81;5059480;28;71853;-67
2024/02/20 00:21:48;;;;;;;;;16.75;9.75;;;;;10.72;83.16;102566.44;5074820;27;72084;-66
2024/02/20 00:24:14;;;;;;;;;14.50;7.75;;;;;10.73;82.96;102560.34;5063778;28;53535;-66
2024/02/20 00:26:39;;;;;;;;;16.75;8.25;;;;;10.73;83.18;102567.28;5078700;27;45374;-66
2024/02/20 00:29:05;;;;;;;;;15.50;6.00;;;;;10.72;83.08;102561.19;5076869;28;72764;-67
2024/02/20 00:31:32;;;;;;;;;7.50;6.50;;;;;10.73;82.97;102565.56;5066352;27;45263;-66
2024/02/20 00:34:01;;;;;;;;;19.50;11.00;;;;;10.72;82.96;102579.53;5070004;27;45307;-66
2024/02/20 00:36:26;;;;;;;;;11.25;7.25;;;;;10.70;83.09;102578.66;5066102;27;45462;-67
2024/02/20 00:38:52;;;;;;;;;21.75;8.25;;;;;10.69;82.93;102578.66;5069845;27;46866;-69
2024/02/20 00:41:18;;;;;;;;;9.25;7.25;;;;;10.67;83.45;102573.41;5058471;28;45507;-67
2024/02/20 00:43:43;;;;;;;;;14.75;11.25;;;;;10.64;83.31;102568.16;5060760;27;45317;-66
2024/02/20 00:46:09;;;;;;;;;17.25;10.75;;;;;10.67;83.25;102578.63;5069028;27;45412;-65
2024/02/20 00:48:35;;;;;;;;;15.25;12.50;;;;;10.65;82.93;102588.25;5063576;27;70507;-66
2024/02/20 00:51:00;;;;;;;;;14.00;8.50;;;;;10.63;83.09;102601.31;5074242;27;45271;-66
2024/02/20 00:53:28;;;;;;;;;16.50;11.25;;;;;10.61;83.43;102587.34;5060947;28;45375;-67
2024/02/20 00:55:53;;;;;;;;;13.75;12.00;;;;;10.58;83.37;102584.72;5059730;28;48526;-67
2024/02/20 00:58:19;;;;;;;;;18.50;12.00;;;;;10.56;83.04;102577.75;5067091;27;75608;-67
2024/02/20 01:00:44;;;;;;;;;20.00;13.00;;;;;10.52;83.32;102566.41;5066595;28;72081;-66
2024/02/20 01:03:09;;;;;;;;;20.00;15.00;;;;;10.51;83.26;102559.41;5071553;28;45416;-65
2024/02/20 01:05:35;;;;;;;;;17.25;12.00;;;;;10.49;83.19;102570.75;5071093;27;45589;-65
2024/02/20 01:08:00;;;;;;;;;16.50;14.75;;;;;10.47;83.28;102573.38;5056581;28;46702;-66
2024/02/20 01:10:25;;;;;;;;;20.00;14.25;;;;;10.44;83.60;102571.59;5068913;27;73352;-66
2024/02/20 01:12:51;;;;;;;;;21.50;14.00;;;;;10.48;83.77;102576.84;5079845;27;45397;-65
2024/02/20 01:15:16;;;;;;;;;24.50;17.00;;;;;10.45;84.01;102575.97;5074809;27;72563;-66
2024/02/20 01:17:41;;;;;;;;;18.75;13.50;;;;;10.45;83.57;102583.81;5059940;28;49624;-66
2024/02/20 01:20:07;;;;;;;;;22.00;16.25;;;;;10.42;83.83;102588.16;5061887;27;73115;-66
2024/02/20 01:22:32;;;;;;;;;21.00;16.00;;;;;10.39;83.73;102575.06;5071525;27;45407;-66
2024/02/20 01:24:58;;;;;;;;;20.75;16.00;;;;;10.37;83.97;102582.03;5076296;27;62201;-66
2024/02/20 01:27:23;;;;;;;;;23.00;16.50;;;;;10.35;83.98;102574.19;5068231;27;75660;-66
2024/02/20 01:29:49;;;;;;;;;22.25;16.50;;;;;10.38;83.90;102583.81;5071117;27;45478;-66
2024/02/20 01:32:14;;;;;;;;;14.50;8.25;;;;;10.38;83.92;102578.56;5071092;27;45741;-66
2024/02/20 01:34:39;;;;;;;;;21.50;13.00;;;;;10.34;83.75;102566.31;5080065;27;56964;-67
2024/02/20 01:37:05;;;;;;;;;15.75;14.00;;;;;10.33;83.90;102570.69;5076492;27;45380;-66
2024/02/20 01:39:31;;;;;;;;;21.00;14.00;;;;;10.29;83.64;102573.25;5072264;27;45246;-66
2024/02/20 01:41:59;;;;;;;;;19.50;13.50;;;;;10.25;83.99;102568.03;5071811;28;45311;-66
2024/02/20 01:44:31;;;;;;;;;15.75;12.75;;;;;10.24;84.15;102574.13;5065410;27;45414;-65
2024/02/20 01:46:56;;;;;;;;;26.75;17.50;;;;;10.24;84.27;102575.88;5074791;27;46910;-66
2024/02/20 01:49:22;;;;;;;;;25.25;13.00;;;;;10.25;84.21;102577.59;5072391;27;45266;-66
2024/02/20 01:51:47;;;;;;;;;23.25;16.00;;;;;10.27;84.51;102581.13;5065355;27;48078;-65
2024/02/20 01:54:13;;;;;;;;;19.50;14.00;;;;;10.28;84.37;102577.63;5056820;28;51035;-66
2024/02/20 01:56:39;;;;;;;;;26.50;15.00;;;;;10.29;84.09;102584.63;5072018;27;70119;-66
2024/02/20 01:59:06;;;;;;;;;22.00;15.75;;;;;10.25;84.02;102581.09;5071479;28;47823;-66
2024/02/20 02:01:32;;;;;;;;;25.75;15.50;;;;;10.23;84.38;102577.63;5066840;27;45464;-66
2024/02/20 02:03:57;;;;;;;;;22.50;13.75;;;;;10.21;84.29;102581.94;5069638;27;66943;-66
2024/02/20 02:06:29;;;;;;;;;18.25;16.25;;;;;10.21;84.33;102588.94;5061946;28;47909;-66
2024/02/20 02:08:54;;;;;;;;;22.25;15.75;;;;;10.21;84.58;102589.78;5071012;28;45939;-67
2024/02/20 02:11:20;;;;;;;;;21.00;16.50;;;;;10.24;84.49;102588.94;5065670;27;45366;-66
2024/02/20 02:13:45;;;;;;;;;24.75;15.75;;;;;10.22;84.50;102582.84;5072342;27;72311;-67
2024/02/20 02:16:10;;;;;;;;;20.25;14.50;;;;;10.25;84.74;102570.66;5076469;28;70430;-66
2024/02/20 02:18:36;;;;;;;;;20.00;18.00;;;;;10.23;84.18;102567.16;5065103;27;71930;-66
2024/02/20 02:21:01;;;;;;;;;21.00;14.50;;;;;10.28;84.73;102582.84;5075363;27;62093;-66
2024/02/20 02:23:26;;;;;;;;;22.00;15.25;;;;;10.29;84.65;102582.00;5070827;27;71909;-66
2024/02/20 02:25:51;;;;;;;;;25.00;16.75;;;;;10.31;84.95;102576.78;5071456;27;74726;-66
2024/02/20 02:28:17;;;;;;;;;13.25;11.25;;;;;10.34;84.48;102571.56;5065604;27;72049;-67
2024/02/20 02:30:42;;;;;;;;;22.50;15.50;;;;;10.36;84.49;102581.19;5061299;28;58499;-67
2024/02/20 02:33:07;;;;;;;;;26.25;16.75;;;;;10.36;84.26;102577.69;5075260;27;69272;-66
2024/02/20 02:35:33;;;;;;;;;19.75;17.25;;;;;10.38;84.25;102581.19;5056918;28;73827;-65
2024/02/20 02:38:00;;;;;;;;;25.00;16.25;;;;;10.38;84.29;102574.19;5067831;27;45183;-66
2024/02/20 02:40:26;;;;;;;;;22.50;13.25;;;;;10.37;84.30;102569.81;5062938;27;45422;-66
2024/02/20 02:42:51;;;;;;;;;27.50;18.25;;;;;10.38;84.52;102581.19;5067781;27;45391;-66
2024/02/20 02:45:17;;;;;;;;;20.50;15.75;;;;;10.38;84.46;102582.06;5075009;28;46215;-66
2024/02/20 02:47:42;;;;;;;;;23.75;18.25;;;;;10.38;84.37;102583.81;5080682;27;45368;-66
2024/02/20 02:50:08;;;;;;;;;26.00;19.00;;;;;10.40;84.05;102577.69;5076565;28;61125;-66
2024/02/20 02:52:34;;;;;;;;;20.50;13.50;;;;;10.39;84.44;102578.59;5061691;28;45478;-66
2024/02/20 02:54:59;;;;;;;;;18.00;15.75;;;;;10.35;84.15;102573.31;5064126;28;46170;-66
2024/02/20 02:57:25;;;;;;;;;23.75;17.25;;;;;10.34;84.18;102584.63;5067950;27;45426;-66
2024/02/20 02:59:51;;;;;;;;;26.25;21.00;;;;;10.30;84.62;102581.09;5067211;27;45526;-66
2024/02/20 03:02:18;;;;;;;;;32.50;19.25;;;;;10.32;84.49;102586.38;5065527;28;45394;-66
2024/02/20 03:04:43;;;;;;;;;25.00;20.75;;;;;10.25;84.23;102575.88;5070469;28;46156;-65
2024/02/20 03:07:08;;;;;;;;;19.75;12.25;;;;;10.21;84.40;102578.47;5074623;27;45332;-65
2024/02/20 03:09:34;;;;;;;;;22.00;14.50;;;;;10.21;84.55;102575.84;5079126;28;56530;-66
2024/02/20 03:11:59;;;;;;;;;29.50;21.00;;;;;10.18;84.61;102568.88;5060295;28;45542;-66
2024/02/20 03:14:25;;;;;;;;;22.75;16.75;;;;;10.19;84.87;102569.75;5067318;27;45392;-65
2024/02/20 03:16:50;;;;;;;;;28.50;20.75;;;;;10.18;84.86;102563.63;5058501;27;67357;-66
2024/02/20 03:19:16;;;;;;;;;28.25;16.75;;;;;10.19;84.81;102569.75;5066425;28;68255;-66
2024/02/20 03:21:42;;;;;;;;;20.00;14.25;;;;;10.15;84.39;102566.22;5077117;28;45289;-65
2024/02/20 03:24:09;;;;;;;;;25.25;19.75;;;;;10.11;84.37;102556.63;5061337;28;48357;-65
2024/02/20 03:26:35;;;;;;;;;36.00;21.25;;;;;10.07;84.86;102557.47;5063759;27;45448;-65
2024/02/20 03:29:00;;;;;;;;;29.00;19.25;;;;;10.03;84.66;102559.19;5062160;28;45387;-65
2024/02/20 03:31:26;;;;;;;;;26.75;15.25;;;;;10.02;84.80;102557.47;5057755;28;45624;-65
2024/02/20 03:33:51;;;;;;;;;30.00;24.25;;;;;10.00;84.92;102560.94;5054075;28;47253;-66
2024/02/20 03:36:18;;;;;;;;;22.25;15.25;;;;;9.94;84.71;102564.38;5058969;28;45683;-66
2024/02/20 03:38:43;;;;;;;;;29.75;22.25;;;;;9.91;84.69;102561.75;5077436;27;45437;-66
2024/02/20 03:41:09;;;;;;;;;31.00;19.50;;;;;9.91;85.23;102559.13;5071477;27;71658;-65
2024/02/20 03:43:34;;;;;;;;;27.50;22.75;;;;;9.95;85.46;102563.53;5067963;28;45914;-65
2024/02/20 03:46:02;;;;;;;;;26.25;18.75;;;;;9.97;85.05;102559.19;5086917;27;45535;-65
2024/02/20 03:48:27;;;;;;;;;35.00;21.25;;;;;9.93;85.03;102552.16;5068859;28;45284;-66
2024/02/20 03:50:52;;;;;;;;;34.75;22.25;;;;;9.92;84.99;102544.34;5075891;28;70173;-66
2024/02/20 03:53:18;;;;;;;;;36.00;23.75;;;;;9.94;85.12;102545.22;5069762;28;47095;-66
2024/02/20 03:55:43;;;;;;;;;35.00;20.50;;;;;9.93;85.11;102541.69;5080074;27;45288;-66
2024/02/20 03:58:08;;;;;;;;;31.00;22.25;;;;;9.91;85.44;102538.22;5077646;27;55481;-65
2024/02/20 04:00:34;;;;;;;;;29.75;23.75;;;;;9.95;85.12;102544.34;5074789;28;71949;-66
2024/02/20 04:02:59;;;;;;;;;22.00;19.75;;;;;9.94;85.26;102542.59;5076919;27;67308;-66
2024/02/20 04:05:25;;;;;;;;;27.00;22.75;;;;;9.94;85.33;102540.84;5073408;27;45414;-66
2024/02/20 04:07:50;;;;;;;;;34.50;21.25;;;;;9.93;85.30;102535.59;5062812;27;66553;-66
2024/02/20 04:10:16;;;;;;;;;28.00;21.00;;;;;9.95;85.61;102534.78;5064600;27;45416;-66
2024/02/20 04:12:42;;;;;;;;;23.25;19.75;;;;;9.95;85.02;102526.03;5077722;28;45528;-66
2024/02/20 04:15:08;;;;;;;;;29.50;19.75;;;;;9.95;85.56;102528.63;5071065;27;45644;-66
2024/02/20 04:17:35;;;;;;;;;29.75;22.25;;;;;9.96;85.43;102527.78;5066507;28;45566;-66
2024/02/20 04:20:03;;;;;;;;;30.50;21.00;;;;;9.97;84.99;102529.50;5067332;28;45419;-67
2024/02/20 04:22:30;;;;;;;;;27.00;20.00;;;;;9.97;85.49;102524.28;5062162;27;45417;-66
2024/02/20 04:24:56;;;;;;;;;28.25;22.25;;;;;9.94;85.30;102525.16;5063092;27;47109;-66
2024/02/20 04:27:22;;;;;;;;;30.75;23.50;;;;;9.90;85.29;102526.03;5066080;27;45340;-66
2024/02/20 04:29:47;;;;;;;;;29.25;23.00;;;;;9.95;85.40;102528.63;5072799;28;72154;-66
2024/02/20 04:32:12;;;;;;;;;32.00;22.75;;;;;10.00;85.62;102530.41;5063901;27;76131;-66
2024/02/20 04:34:39;;;;;;;;;28.00;19.25;;;;;10.03;85.71;102516.47;5072778;27;73300;-66
2024/02/20 04:37:04;;;;;;;;;30.25;22.50;;;;;10.04;85.54;102506.03;5054865;27;45623;-66
2024/02/20 04:39:29;;;;;;;;;33.25;20.25;;;;;10.05;85.49;102504.28;5064549;27;45500;-66
2024/02/20 04:41:55;;;;;;;;;23.75;19.00;;;;;10.01;85.17;102502.53;5076399;27;71660;-66
2024/02/20 04:44:20;;;;;;;;;40.75;23.00;;;;;9.99;85.19;102506.88;5068935;27;59384;-65
2024/02/20 04:46:45;;;;;;;;;31.75;23.25;;;;;9.97;85.05;102511.22;5072563;27;49690;-66
2024/02/20 04:49:11;;;;;;;;;32.75;25.75;;;;;9.94;85.23;102511.22;5072388;27;45361;-65
2024/02/20 04:51:36;;;;;;;;;28.75;21.25;;;;;9.92;85.37;102519.06;5076386;27;68311;-66
2024/02/20 04:54:02;;;;;;;;;32.00;23.50;;;;;9.88;85.06;102514.69;5080176;27;45429;-66
2024/02/20 04:56:27;;;;;;;;;28.25;19.75;;;;;9.85;85.38;102522.50;5066749;27;63210;-66
2024/02/20 04:58:52;;;;;;;;;23.75;21.25;;;;;9.82;85.35;102522.47;5071147;27;60988;-66
2024/02/20 05:01:18;;;;;;;;;27.75;20.50;;;;;9.81;85.32;102529.47;5075805;27;65057;-66
2024/02/20 05:03:44;;;;;;;;;25.50;19.75;;;;;9.80;85.30;102524.22;5070961;27;45204;-66
2024/02/20 05:06:11;;;;;;;;;23.50;21.00;;;;;9.80;85.32;102532.06;5081511;27;45468;-66
2024/02/20 05:08:36;;;;;;;;;30.50;20.75;;;;;9.79;85.85;102527.69;5063505;28;47094;-65
2024/02/20 05:11:02;;;;;;;;;33.00;20.00;;;;;9.78;85.56;102521.59;5072739;27;58911;-66
2024/02/20 05:13:27;;;;;;;;;28.00;20.75;;;;;9.75;85.59;102518.09;5062367;27;56478;-66
2024/02/20 05:15:52;;;;;;;;;26.25;20.25;;;;;9.77;85.65;102518.97;5076733;27;45374;-66
2024/02/20 05:18:18;;;;;;;;;34.00;21.50;;;;;9.75;85.81;102523.31;5075435;27;71391;-66
2024/02/20 05:20:43;;;;;;;;;30.25;21.50;;;;;9.73;85.93;102519.84;5075401;27;45223;-66
2024/02/20 05:23:09;;;;;;;;;24.25;23.00;;;;;9.74;85.83;102526.78;5073314;27;71192;-66
2024/02/20 05:25:34;;;;;;;;;29.25;18.25;;;;;9.75;86.17;102521.56;5059610;27;68381;-66
2024/02/20 05:27:59;;;;;;;;;30.50;22.00;;;;;9.80;86.24;102529.44;5065755;27;60526;-65
2024/02/20 05:30:24;;;;;;;;;31.75;23.25;;;;;9.83;86.19;102526.88;5070253;27;71607;-66
2024/02/20 05:32:50;;;;;;;;;31.50;23.00;;;;;9.87;86.01;102528.63;5053108;28;75272;-66
2024/02/20 05:35:15;;;;;;;;;32.00;23.75;;;;;9.92;86.31;102534.75;5068733;27;45388;-66
2024/02/20 05:37:41;;;;;;;;;41.25;22.25;;;;;10.01;86.33;102536.53;5077726;28;45359;-67
2024/02/20 05:40:10;;;;;;;;;33.50;19.25;;;;;10.05;86.20;102526.06;5070255;28;45319;-66
2024/02/20 05:42:37;;;;;;;;;40.25;24.00;;;;;10.13;86.21;102538.31;5089966;27;45463;-66
2024/02/20 05:45:02;;;;;;;;;36.75;23.75;;;;;10.15;85.77;102534.84;5050807;28;45442;-66
2024/02/20 05:47:28;;;;;;;;;31.25;24.75;;;;;10.14;85.42;102533.06;5072223;27;45432;-66
2024/02/20 05:49:53;;;;;;;;;28.25;20.75;;;;;10.18;85.25;102542.72;5076268;27;69564;-66
2024/02/20 05:52:18;;;;;;;;;34.75;21.25;;;;;10.18;85.11;102540.09;5072636;28;45415;-66
2024/02/20 05:54:46;;;;;;;;;36.25;22.00;;;;;10.17;84.98;102543.56;5076365;27;59450;-66
2024/02/20 05:57:11;;;;;;;;;32.00;22.75;;;;;10.19;85.20;102541.81;5073805;27;45697;-66
2024/02/20 05:59:36;;;;;;;;;35.00;23.25;;;;;10.23;85.41;102537.47;5071214;27;45231;-66
2024/02/20 06:02:02;;;;;;;;;38.25;21.50;;;;;10.26;85.57;102540.09;5054033;28;73681;-65
2024/02/20 06:04:27;;;;;;;;;28.00;22.75;;;;;10.32;85.00;102541.91;5068908;27;45453;-67
2024/02/20 06:06:52;;;;;;;;;34.00;18.25;;;;;10.35;85.33;102545.41;5052799;28;73109;-66
2024/02/20 06:09:18;;;;;;;;;29.00;23.25;;;;;10.35;84.85;102542.78;5072532;27;74038;-66
2024/02/20 06:11:43;;;;;;;;;28.00;22.25;;;;;10.38;84.48;102548.03;5088229;27;75158;-66
2024/02/20 06:14:08;;;;;;;;;33.25;22.25;;;;;10.35;84.38;102549.75;5075849;28;45409;-66
2024/02/20 06:16:34;;;;;;;;;27.00;21.25;;;;;10.37;84.19;102551.50;5078632;27;45422;-66
2024/02/20 06:18:59;;;;;;;;;26.25;22.00;;;;;10.36;84.27;102555.00;5072367;27;59297;-66
2024/02/20 06:21:25;;;;;;;;;13.25;11.75;;;;;10.30;83.51;102562.78;5071089;28;46944;-66
2024/02/20 06:23:51;;;;;;;;;21.25;17.75;;;;;10.20;83.66;102561.91;5057907;28;45380;-66
2024/02/20 06:26:17;;;;;;;;;31.00;18.75;;;;;10.14;83.61;102559.25;5080078;27;45394;-66
2024/02/20 06:28:43;;;;;;;;;23.50;15.25;;;;;10.05;83.73;102554.84;5062784;28;45422;-66
2024/02/20 06:31:08;;;;;;;;;23.50;11.75;;;;;10.02;83.60;102564.41;5061330;28;45364;-65
2024/02/20 06:33:34;;;;;;;;;28.75;19.75;;;;;10.01;84.18;102565.31;5074958;27;45429;-65
2024/02/20 06:35:59;;;;;;;;;30.00;18.75;;;;;10.01;84.01;102560.94;5060422;28;45477;-65
2024/02/20 06:38:31;;;;;;;;;26.50;15.50;;;;;10.02;84.16;102553.94;5062039;27;67374;-65
2024/02/20 06:40:57;;;;;;;;;33.25;18.25;;;;;10.06;84.07;102568.81;5063095;28;45574;-66
2024/02/20 06:43:22;;;;;;;;;25.00;20.50;;;;;10.06;84.15;102566.19;5070837;27;45439;-66
2024/02/20 06:45:47;;;;;;;;;30.75;19.50;;;;;10.07;84.16;102579.28;5074914;28;46047;-66
2024/02/20 06:48:13;;;;;;;;;30.75;21.00;;;;;10.03;83.68;102574.03;5075682;27;69497;-66
2024/02/20 06:50:38;;;;;;;;;21.50;16.25;;;;;9.99;83.79;102580.13;5069538;27;67396;-66
2024/02/20 06:53:03;;;;;;;;;21.50;16.75;;;;;9.93;83.82;102586.16;5096733;27;45413;-65
2024/02/20 06:55:29;;;;;;;;;27.50;19.00;;;;;9.95;84.18;102580.94;5078904;28;45216;-64
2024/02/20 06:57:57;;;;;;;;;21.50;15.50;;;;;9.92;83.98;102581.81;5076189;27;46941;-64
2024/02/20 07:00:22;;;;;;;;;19.50;16.50;;;;;9.87;83.89;102581.78;5073937;28;45418;-64
2024/02/20 07:02:48;;;;;;;;;24.50;14.75;;;;;9.84;84.04;102588.72;5076179;27;63400;-64
2024/02/20 07:05:14;;;;;;;;;21.25;17.75;;;;;9.84;84.07;102575.66;5056970;28;45519;-62
2024/02/20 07:07:39;;;;;;;;;24.00;15.75;;;;;9.83;83.58;102579.16;5066555;27;45500;-63
2024/02/20 07:10:08;;;;;;;;;22.25;14.25;;;;;9.81;83.93;102587.00;5072436;27;71493;-63
2024/02/20 07:12:34;;;;;;;;;22.75;13.75;;;;;9.81;84.14;102597.44;5070861;27;45452;-65
2024/02/20 07:15:01;;;;;;;;;19.75;12.50;;;;;9.78;83.61;102594.81;5062277;28;45329;-63
2024/02/20 07:17:26;;;;;;;;;21.75;18.00;;;;;9.74;83.93;102594.75;5062815;28;45586;-64
2024/02/20 07:19:55;;;;;;;;;20.50;15.00;;;;;9.72;84.02;102605.25;5068306;27;45475;-64
2024/02/20 07:22:21;;;;;;;;;27.50;18.00;;;;;9.69;84.03;102597.38;5071220;28;45472;-64
2024/02/20 07:24:46;;;;;;;;;22.00;19.00;;;;;9.67;84.00;102592.13;5064866;28;45544;-64
2024/02/20 07:27:11;;;;;;;;;20.75;18.50;;;;;9.73;84.46;102593.91;5064083;28;49336;-62
2024/02/20 07:29:41;;;;;;;;;27.25;15.25;;;;;9.79;84.64;102590.44;5075182;28;64941;-63
2024/02/20 07:32:08;;;;;;;;;24.00;17.50;;;;;9.85;84.31;102587.88;5072036;28;45651;-65
2024/02/20 07:34:37;;;;;;;;;19.25;15.25;;;;;9.92;84.39;102592.28;5062740;28;45469;-64
2024/02/20 07:37:03;;;;;;;;;25.25;16.25;;;;;9.99;84.42;102594.06;5061137;28;46159;-64
2024/02/20 07:39:28;;;;;;;;;21.50;18.75;;;;;10.03;83.67;102595.81;5058415;28;45394;-65
2024/02/20 07:41:53;;;;;;;;;31.75;19.50;;;;;10.07;83.93;102594.09;5072457;28;51849;-64
2024/02/20 07:44:19;;;;;;;;;24.00;17.00;;;;;10.11;83.65;102587.13;5054207;28;62139;-64
2024/02/20 07:46:44;;;;;;;;;23.50;18.50;;;;;10.17;83.43;102595.88;5063285;28;67573;-65
2024/02/20 07:49:09;;;;;;;;;23.00;16.50;;;;;10.23;83.45;102592.41;5060344;28;45438;-67
2024/02/20 07:51:35;;;;;;;;;19.50;17.50;;;;;10.28;83.05;102595.94;5058944;28;68319;-67
2024/02/20 07:54:00;;;;;;;;;27.25;19.25;;;;;10.30;83.10;102598.56;5070329;28;45215;-66
2024/02/20 07:56:29;;;;;;;;;23.75;19.75;;;;;10.32;83.11;102592.47;5067903;28;45902;-65
2024/02/20 07:58:54;;;;;;;;;22.25;16.25;;;;;10.36;82.68;102598.63;5042552;28;45424;-64
2024/02/20 08:01:20;;;;;;;;;22.25;16.75;;;;;10.38;82.55;102594.28;5059641;28;45383;-67
2024/02/20 08:03:47;;;;;;;;;20.75;18.00;;;;;10.42;82.58;102604.75;5050937;28;45445;-66
2024/02/20 08:06:12;;;;;;;;;23.00;17.50;;;;;10.47;82.24;102609.16;5080255;27;45445;-65
2024/02/20 08:08:38;;;;;;;;;23.75;15.75;;;;;10.52;82.15;102608.28;5063831;28;73099;-66
2024/02/20 08:11:03;;;;;;;;;22.00;15.75;;;;;10.58;81.95;102607.44;5072998;27;45512;-64
2024/02/20 08:13:28;;;;;;;;;22.75;16.25;;;;;10.60;81.83;102611.78;5073353;27;45475;-65
2024/02/20 08:15:54;;;;;;;;;18.75;13.50;;;;;10.64;81.76;102610.03;5076440;28;47789;-64
2024/02/20 08:18:19;;;;;;;;;23.00;16.75;;;;;10.69;81.67;102610.94;5071863;27;45465;-65
2024/02/20 08:20:48;;;;;;;;;23.25;16.50;;;;;10.72;81.19;102610.94;5068864;28;65280;-66
2024/02/20 08:23:13;;;;;;;;;28.25;19.25;;;;;10.77;81.10;102608.34;5074882;27;45438;-66
2024/02/20 08:25:39;;;;;;;;;21.25;16.25;;;;;10.79;81.21;102611.84;5066394;27;73486;-68
2024/02/20 08:28:05;;;;;;;;;25.50;20.50;;;;;10.83;81.21;102606.59;5068891;28;45833;-67
2024/02/20 08:30:30;;;;;;;;;22.25;15.50;;;;;10.88;80.62;102605.75;5078473;28;45486;-67
2024/02/20 08:32:56;;;;;;;;;23.50;20.00;;;;;10.93;80.72;102609.25;5061899;28;45384;-65
2024/02/20 08:35:21;;;;;;;;;25.50;18.75;;;;;10.99;80.18;102610.13;5062885;28;73165;-65
2024/02/20 08:37:47;;;;;;;;;23.50;17.25;;;;;11.00;79.89;102611.03;5075906;27;45488;-66
2024/02/20 08:40:12;;;;;;;;;24.00;16.50;;;;;11.02;79.92;102599.66;5068187;27;68120;-65
2024/02/20 08:42:38;;;;;;;;;22.75;17.00;;;;;11.07;80.02;102604.06;5078052;27;53543;-66
2024/02/20 08:45:04;;;;;;;;;23.75;19.75;;;;;11.12;79.67;102600.56;5059315;28;45475;-66
2024/02/20 08:47:30;;;;;;;;;20.25;12.25;;;;;11.14;79.69;102603.19;5067319;27;45478;-68
2024/02/20 08:49:56;;;;;;;;;21.75;18.25;;;;;11.21;79.92;102597.94;5067408;28;45441;-67
2024/02/20 08:52:21;;;;;;;;;25.50;18.25;;;;;11.33;79.76;102599.69;5067512;28;45529;-68
2024/02/20 08:54:46;;;;;;;;;19.00;15.50;;;;;11.39;79.45;102591.81;5065074;28;46267;-67
2024/02/20 08:57:12;;;;;;;;;29.25;17.25;;;;;11.43;78.93;102589.19;5070944;27;45527;-66
2024/02/20 08:59:37;;;;;;;;;24.00;16.50;;;;;11.44;79.24;102590.91;5065891;28;45806;-66
2024/02/20 09:02:03;;;;;;;;;36.25;16.50;;;;;11.49;79.26;102600.56;5063751;28;68169;-66
2024/02/20 09:04:29;;;;;;;;;16.25;13.00;;;;;11.50;78.14;102602.28;5059095;28;45545;-66
2024/02/20 09:06:54;;;;;;;;;18.25;14.50;;;;;11.48;77.89;102604.03;5067930;27;45430;-66
2024/02/20 09:09:22;;;;;;;;;18.50;16.00;;;;;11.48;77.98;102595.31;5077445;28;45517;-66
2024/02/20 09:11:51;;;;;;;;;21.00;12.50;;;;;11.50;77.60;102604.91;5065213;28;45563;-67
2024/02/20 09:14:18;;;;;;;;;21.50;17.75;;;;;11.46;77.72;102605.78;5066412;28;45387;-67
2024/02/20 09:16:44;;;;;;;;;18.50;16.50;;;;;11.42;77.97;102606.69;5065799;27;46362;-67
2024/02/20 09:19:10;;;;;;;;;23.00;13.00;;;;;11.43;78.27;102607.53;5078170;28;45384;-68
2024/02/20 09:21:35;;;;;;;;;18.50;15.50;;;;;11.45;78.03;102603.16;5066297;28;45591;-68
2024/02/20 09:24:01;;;;;;;;;24.50;19.00;;;;;11.46;77.59;102603.16;5067590;28;45920;-65
2024/02/20 09:26:26;;;;;;;;;25.75;17.00;;;;;11.50;77.92;102604.03;5063146;27;45387;-67
2024/02/20 09:28:52;;;;;;;;;21.75;17.00;;;;;11.55;77.66;102618.88;5067513;27;45449;-65
2024/02/20 09:31:17;;;;;;;;;21.75;16.00;;;;;11.58;77.76;102623.28;5072001;27;45675;-68
2024/02/20 09:33:43;;;;;;;;;18.50;15.00;;;;;11.63;77.51;102621.50;5078006;27;45341;-66
2024/02/20 09:36:09;;;;;;;;;15.50;13.25;;;;;11.68;77.72;102622.38;5077789;27;45374;-66
2024/02/20 09:38:35;;;;;;;;;17.50;14.50;;;;;11.72;77.29;102626.75;5081255;27;45146;-67
2024/02/20 09:41:01;;;;;;;;;21.00;15.00;;;;;11.74;77.16;102624.13;5079436;28;45452;-66
2024/02/20 09:43:26;;;;;;;;;23.50;18.75;;;;;11.74;77.23;102624.13;5080303;27;46034;-66
2024/02/20 09:45:53;;;;;;;;;17.75;16.25;;;;;11.83;77.33;102626.72;5090610;27;45509;-67
2024/02/20 09:48:18;;;;;;;;;25.75;16.50;;;;;11.90;77.04;102631.13;5076457;27;62943;-67
2024/02/20 09:50:44;;;;;;;;;19.00;16.25;;;;;11.97;76.49;102629.38;5090821;27;45441;-67
2024/02/20 09:53:11;;;;;;;;;21.25;16.50;;;;;11.99;76.16;102631.97;5071249;27;45787;-68
2024/02/20 09:55:37;;;;;;;;;16.75;15.50;;;;;12.01;76.16;102635.47;5070034;27;73976;-68
2024/02/20 09:58:02;;;;;;;;;18.25;17.00;;;;;12.00;76.37;102637.22;5070427;27;64253;-68
2024/02/20 10:00:28;;;;;;;;;25.75;19.50;;;;;11.98;75.87;102630.22;5092862;27;45465;-67
2024/02/20 10:02:55;;;;;;;;;22.25;16.50;;;;;11.93;76.11;102622.34;5053087;28;71239;-68
2024/02/20 10:05:20;;;;;;;;;26.00;17.75;;;;;11.98;76.04;102624.97;5068990;27;45475;-69
2024/02/20 10:07:46;;;;;;;;;24.50;18.50;;;;;11.97;75.79;102634.63;5075148;27;45425;-66
2024/02/20 10:10:12;;;;;;;;;23.25;20.25;;;;;11.94;75.90;102632.00;5063744;27;72460;-68
2024/02/20 10:12:39;;;;;;;;;28.25;19.50;;;;;11.92;75.84;102645.09;5073004;28;47939;-71
2024/02/20 10:15:13;;;;;;;;;25.50;18.00;;;;;11.95;75.88;102642.47;5063194;27;45567;-67
2024/02/20 10:17:38;;;;;;;;;22.25;17.75;;;;;11.96;75.50;102644.22;5069618;27;45382;-68
2024/02/20 10:20:12;;;;;;;;;25.00;17.00;;;;;11.98;75.94;102643.34;5074690;28;45374;-67
2024/02/20 10:22:41;;;;;;;;;17.75;15.00;;;;;12.00;75.00;102629.34;5073423;27;46551;-71
2024/02/20 10:25:08;;;;;;;;;19.50;12.50;;;;;12.03;74.63;102633.72;5073623;28;45817;-70
2024/02/20 10:27:37;;;;;;;;;17.25;13.75;;;;;12.03;74.81;102626.72;5069253;27;45479;-69
2024/02/20 10:30:07;;;;;;;;;17.75;14.00;;;;;12.09;74.66;102624.09;5074283;27;45271;-67
2024/02/20 10:32:36;;;;;;;;;18.50;15.50;;;;;12.12;74.03;102610.06;5082337;27;46129;-71
2024/02/20 10:35:02;;;;;;;;;17.25;14.25;;;;;12.18;74.33;102607.41;5073589;27;45969;-69
2024/02/20 10:37:28;;;;;;;;;23.00;16.25;;;;;12.22;74.14;102603.06;5072640;27;45409;-68
2024/02/20 10:40:13;;;;;;;;;18.50;17.50;;;;;12.25;74.02;102601.28;5088692;27;45356;-68
2024/02/20 10:42:39;;;;;;;;;24.00;17.75;;;;;12.31;73.37;102588.13;5071256;27;46415;-71
2024/02/20 10:45:10;;;;;;;;;18.50;14.00;;;;;12.44;73.50;102593.31;5053193;28;45981;-68
2024/02/20 10:47:41;;;;;;;;;24.00;17.75;;;;;12.54;73.17;102588.00;5066616;27;45311;-73
2024/02/20 10:50:08;;;;;;;;;15.50;13.00;;;;;12.63;72.12;102588.84;5066711;27;45636;-72
2024/02/20 10:52:36;;;;;;;;;18.25;13.75;;;;;12.66;72.29;102586.19;5068873;28;46164;-73
2024/02/20 10:55:06;;;;;;;;;22.50;13.75;;;;;12.69;71.88;102580.91;5062954;27;45779;-68
2024/02/20 10:57:35;;;;;;;;;16.75;14.50;;;;;12.79;72.28;102572.09;5070648;27;45465;-66
2024/02/20 11:00:03;;;;;;;;;18.00;15.00;;;;;12.87;71.76;102567.66;5059450;28;45996;-68
2024/02/20 11:02:29;;;;;;;;;17.75;12.00;;;;;12.93;70.79;102560.63;5059879;28;46345;-70
2024/02/20 11:04:55;;;;;;;;;19.75;13.75;;;;;12.96;71.11;102556.22;5079110;27;45379;-66
2024/02/20 11:07:20;;;;;;;;;20.50;14.00;;;;;12.99;70.53;102558.81;5087390;27;69120;-63